aviador You're here:

KFAY Decoded Metar

Report Time2018-03-21 03:01:00
UTC Time2018-03-21 03:09:21
Flight Rules mvfr MVFR
Wind010° at 13 kt
W.Decomp.*RWY 04: 12.0 kt HW 5.1 kt LCW
RWY 10: 1.6 kt HW 12.9 kt LCW
W.Rank010° ranks 7
Current wind is above 010° avg. (7.5)
Visibility9999 m
Phenomena:Light Rain
Vicinity thunderstorm
Clouds:Few 007 Hf
Broken 011 Hf
Overcast 060 Hf
Expected CloudBase > 1,200 ft AGL from Temp-Dew spread
Ceiling1,100 ft
Temp07°C (ISA -8)
Dew Point04°C (81% RH)
QNH1001 hPa
Density Alt-217 ft
Elevation180 ft
Report Wrong Elevation
Raw Report
KFAY 210301Z 01013KT 7SM VCTS -RA FEW007 BKN011 OVC060 07/04 A2957
RMK AO2 LTG DSNT N AND NE AND S TSE01 P0001 T00670044=

Extra information for KFAY:More info

Metar Taf Metar & Taf Last 4 Metars F.Rules Stats Wind Profile Meteogram Temp Stats Airport Information Weather charts Add Link Nearby VenuesMetar ALERT Operation Metar Decoded Social comments

AIRNAV info for KFAY